createdAt,value
2022-10-24T00:00:28.739Z,343.10
2022-10-24T00:03:15.707Z,173.38
2022-10-24T00:05:44.091Z,83.00
2022-10-24T00:08:11.489Z,86.07
2022-10-24T00:10:42.490Z,79.80
2022-10-24T00:13:10.425Z,67.07
2022-10-24T00:15:37.923Z,74.30
2022-10-24T00:18:05.152Z,96.57
2022-10-24T00:20:32.445Z,84.82
2022-10-24T00:22:59.282Z,115.05
2022-10-24T00:25:26.413Z,107.22
2022-10-24T00:27:53.325Z,104.38
2022-10-24T00:30:20.443Z,122.55
2022-10-24T00:32:47.416Z,118.85
2022-10-24T00:35:14.880Z,154.07
2022-10-24T00:37:41.876Z,121.90
2022-10-24T00:40:10.504Z,88.78
2022-10-24T00:42:37.331Z,74.85
2022-10-24T00:45:33.533Z,109.28
2022-10-24T00:48:00.636Z,480.38
2022-10-24T00:50:28.770Z,449.08
2022-10-24T00:52:55.701Z,334.73
2022-10-24T00:55:22.912Z,176.38
2022-10-24T00:57:53.308Z,221.20
2022-10-24T01:00:26.651Z,91.13
2022-10-24T01:02:53.924Z,297.27
2022-10-24T01:05:23.138Z,102.85
2022-10-24T01:08:14.294Z,224.50
2022-10-24T01:10:59.703Z,99.88
2022-10-24T01:13:32.763Z,109.82
2022-10-24T01:16:16.059Z,74.55
2022-10-24T01:18:50.565Z,225.93
2022-10-24T01:21:24.892Z,385.15
2022-10-24T01:24:02.138Z,88.10
2022-10-24T01:27:06.818Z,68.20
2022-10-24T01:29:52.494Z,68.18
2022-10-24T01:32:50.981Z,56.97
2022-10-24T01:35:42.677Z,162.82
2022-10-24T01:38:14.891Z,124.63
2022-10-24T01:41:07.787Z,216.60
2022-10-24T01:43:38.473Z,77.72
2022-10-24T01:46:09.240Z,82.50
2022-10-24T01:48:44.283Z,54.30
2022-10-24T01:51:13.097Z,68.53
2022-10-24T01:53:40.954Z,72.15
2022-10-24T01:56:08.052Z,72.65
2022-10-24T01:58:35.164Z,73.95
2022-10-24T02:01:07.890Z,119.95
2022-10-24T02:03:42.097Z,67.10
2022-10-24T02:06:13.922Z,97.53
2022-10-24T02:08:44.466Z,156.90
2022-10-24T02:11:11.676Z,195.38
2022-10-24T02:13:49.546Z,259.90
2022-10-24T02:16:18.857Z,77.57
2022-10-24T02:18:47.246Z,71.57
2022-10-24T02:21:53.747Z,204.65
2022-10-24T02:24:29.322Z,110.55
2022-10-24T02:27:10.510Z,263.63
2022-10-24T02:29:37.833Z,62.83
2022-10-24T02:32:21.704Z,57.92
2022-10-24T02:34:49.389Z,61.65
2022-10-24T02:37:16.893Z,58.60
2022-10-24T02:39:46.815Z,60.35
2022-10-24T02:42:14.684Z,99.15
2022-10-24T02:44:42.555Z,141.88
2022-10-24T02:47:11.359Z,158.95
2022-10-24T02:49:38.882Z,89.90
2022-10-24T02:52:06.618Z,59.53
2022-10-24T02:54:33.722Z,54.90
2022-10-24T02:57:02.697Z,57.88
2022-10-24T02:59:30.512Z,62.05
2022-10-24T03:01:58.000Z,51.50
2022-10-24T03:04:25.152Z,50.08
2022-10-24T03:06:53.402Z,60.47
2022-10-24T03:09:20.497Z,64.03
2022-10-24T03:11:47.524Z,62.30
2022-10-24T03:14:14.585Z,63.85
2022-10-24T03:16:41.503Z,57.35
2022-10-24T03:19:09.119Z,67.13
2022-10-24T03:21:36.830Z,54.33
2022-10-24T03:24:04.227Z,68.72
2022-10-24T03:26:31.331Z,77.95
2022-10-24T03:28:58.487Z,56.67
2022-10-24T03:31:25.595Z,82.85
2022-10-24T03:33:52.785Z,64.28
2022-10-24T03:36:19.674Z,58.38
2022-10-24T03:38:46.809Z,63.30
2022-10-24T03:41:13.671Z,73.82
2022-10-24T03:43:40.851Z,59.50
2022-10-24T03:46:07.731Z,61.40
2022-10-24T03:48:35.030Z,69.78
2022-10-24T03:51:02.036Z,77.90
2022-10-24T03:53:29.218Z,88.05
2022-10-24T03:55:57.492Z,67.10
2022-10-24T03:58:25.058Z,94.65
2022-10-24T04:00:52.174Z,75.50
2022-10-24T04:03:19.303Z,72.57
2022-10-24T04:05:46.213Z,71.63
2022-10-24T04:08:13.405Z,73.97
2022-10-24T04:10:40.223Z,71.60
2022-10-24T04:13:07.642Z,80.95
2022-10-24T04:15:34.504Z,74.70
2022-10-24T04:18:01.643Z,62.08
2022-10-24T04:20:28.690Z,73.10
2022-10-24T04:22:55.795Z,62.40
2022-10-24T04:25:22.801Z,65.18
2022-10-24T04:27:49.962Z,60.78
2022-10-24T04:30:17.043Z,60.88
2022-10-24T04:32:44.898Z,57.95
2022-10-24T04:35:12.083Z,54.28
2022-10-24T04:37:39.316Z,54.08
2022-10-24T04:40:06.997Z,56.90
2022-10-24T04:42:34.071Z,60.63
2022-10-24T04:45:00.970Z,66.60
2022-10-24T04:47:28.445Z,71.80
2022-10-24T04:49:55.315Z,85.60
2022-10-24T04:52:22.408Z,91.30
2022-10-24T04:54:49.408Z,82.25
2022-10-24T04:57:16.833Z,80.57
2022-10-24T04:59:43.762Z,86.30
2022-10-24T05:02:10.912Z,83.32
2022-10-24T05:04:37.916Z,80.68
2022-10-24T05:07:05.772Z,77.72
2022-10-24T05:09:32.831Z,67.85
2022-10-24T05:11:59.928Z,59.90
2022-10-24T05:14:26.853Z,57.35
2022-10-24T05:16:53.992Z,52.92
2022-10-24T05:19:20.821Z,53.78
2022-10-24T05:21:48.057Z,52.03
2022-10-24T05:24:14.930Z,54.65
2022-10-24T05:26:42.177Z,49.20
2022-10-24T05:29:09.050Z,61.33
2022-10-24T05:31:36.230Z,56.72
2022-10-24T05:34:03.137Z,50.20
2022-10-24T05:36:30.212Z,52.42
2022-10-24T05:38:57.025Z,62.92
2022-10-24T05:41:24.089Z,61.25
2022-10-24T05:43:51.012Z,53.17
2022-10-24T05:46:18.119Z,51.75
2022-10-24T05:48:45.029Z,53.28
2022-10-24T05:51:12.103Z,56.10
2022-10-24T05:53:39.016Z,81.55
2022-10-24T05:56:06.533Z,71.93
2022-10-24T05:58:33.363Z,53.22
2022-10-24T06:01:01.146Z,54.92
2022-10-24T06:03:28.108Z,82.15
2022-10-24T06:05:55.282Z,55.55
2022-10-24T06:08:22.178Z,55.03
2022-10-24T06:10:50.763Z,56.72
2022-10-24T06:13:18.399Z,56.67
2022-10-24T06:15:45.723Z,50.83
2022-10-24T06:18:12.597Z,51.65
2022-10-24T06:20:39.738Z,45.05
2022-10-24T06:23:06.595Z,49.70
2022-10-24T06:25:33.665Z,48.42
2022-10-24T06:28:00.734Z,44.03
2022-10-24T06:30:27.937Z,46.63
2022-10-24T06:32:54.949Z,49.63
2022-10-24T06:35:22.020Z,45.67
2022-10-24T06:37:48.933Z,45.22
2022-10-24T06:40:17.307Z,46.90
2022-10-24T06:42:44.446Z,46.97
2022-10-24T06:45:11.892Z,44.90
2022-10-24T06:47:38.755Z,41.72
2022-10-24T06:50:06.494Z,44.75
2022-10-24T06:52:33.315Z,42.25
2022-10-24T06:55:00.403Z,45.15
2022-10-24T06:57:27.250Z,44.38
2022-10-24T06:59:54.914Z,45.67
2022-10-24T07:02:22.010Z,45.28
2022-10-24T07:04:49.446Z,39.35
2022-10-24T07:07:19.190Z,50.00
2022-10-24T07:09:54.894Z,44.75
2022-10-24T07:12:22.591Z,48.65
2022-10-24T07:14:49.944Z,46.70
2022-10-24T07:17:17.866Z,47.70
2022-10-24T07:19:45.230Z,46.70
2022-10-24T07:22:12.115Z,50.95
2022-10-24T07:24:39.272Z,51.10
2022-10-24T07:27:06.119Z,48.55
2022-10-24T07:29:33.230Z,43.65
2022-10-24T07:32:00.175Z,46.97
2022-10-24T07:34:27.303Z,43.38
2022-10-24T07:36:54.150Z,46.28
2022-10-24T07:39:21.184Z,42.65
2022-10-24T07:41:48.046Z,45.78
2022-10-24T07:44:15.144Z,40.55
2022-10-24T07:46:42.648Z,45.05
2022-10-24T07:49:10.153Z,45.25
2022-10-24T07:51:37.283Z,41.95
2022-10-24T07:54:04.777Z,46.45
2022-10-24T07:56:31.763Z,44.67
2022-10-24T07:59:05.815Z,49.78
2022-10-24T08:01:36.577Z,51.30
2022-10-24T08:04:04.090Z,48.15
2022-10-24T08:06:32.010Z,47.83
2022-10-24T08:08:59.341Z,46.55
2022-10-24T08:11:27.548Z,51.88
2022-10-24T08:13:56.004Z,48.38
2022-10-24T08:16:23.652Z,48.75
2022-10-24T08:18:52.189Z,46.55
2022-10-24T08:21:20.303Z,46.78
2022-10-24T08:23:51.448Z,46.80
2022-10-24T08:26:21.609Z,46.33
2022-10-24T08:28:49.362Z,47.70
2022-10-24T08:31:18.825Z,50.80
2022-10-24T08:33:46.111Z,55.00
2022-10-24T08:36:20.829Z,47.03
2022-10-24T08:38:48.210Z,51.33
2022-10-24T08:41:38.993Z,49.10
2022-10-24T08:44:18.481Z,54.63
2022-10-24T08:46:51.227Z,49.35
2022-10-24T08:49:24.254Z,54.85
2022-10-24T08:51:56.137Z,49.70
2022-10-24T08:54:27.788Z,46.25
2022-10-24T08:56:57.980Z,47.55
2022-10-24T08:59:27.279Z,44.60
2022-10-24T09:02:04.110Z,48.65
2022-10-24T09:04:41.086Z,53.03
2022-10-24T09:07:14.679Z,44.70
2022-10-24T09:09:46.886Z,42.90
2022-10-24T09:12:15.868Z,45.28
2022-10-24T09:14:44.972Z,42.33
2022-10-24T09:19:56.733Z,45.80
2022-10-24T09:22:24.536Z,43.17
2022-10-24T09:24:55.562Z,42.67
2022-10-24T09:27:29.544Z,49.97
2022-10-24T09:29:57.981Z,48.65
2022-10-24T09:32:28.100Z,45.78
2022-10-24T09:34:55.319Z,45.47
2022-10-24T09:37:44.336Z,44.50
2022-10-24T09:40:22.481Z,47.00
2022-10-24T09:42:58.465Z,42.75
2022-10-24T09:45:36.056Z,44.38
2022-10-24T09:48:26.059Z,43.00
2022-10-24T09:50:56.482Z,43.45
2022-10-24T09:53:32.651Z,39.47
2022-10-24T09:56:13.020Z,41.80
2022-10-24T09:58:40.864Z,48.10
2022-10-24T10:01:20.078Z,42.88
2022-10-24T10:04:09.439Z,45.28
2022-10-24T10:06:44.411Z,51.00
2022-10-24T10:09:19.448Z,48.22
2022-10-24T10:12:02.485Z,47.15
2022-10-24T10:14:30.168Z,44.80
2022-10-24T10:17:05.785Z,35.15
2022-10-24T10:19:36.811Z,35.45
2022-10-24T10:22:20.714Z,36.28
2022-10-24T10:24:47.729Z,32.88
2022-10-24T10:27:24.296Z,30.77
2022-10-24T10:30:17.338Z,30.10
2022-10-24T10:33:03.409Z,31.90
2022-10-24T10:35:48.431Z,32.20
2022-10-24T10:38:36.963Z,29.40
2022-10-24T10:41:08.816Z,29.70
2022-10-24T10:44:02.758Z,29.17
2022-10-24T10:46:40.144Z,28.60
2022-10-24T10:49:42.252Z,26.33
2022-10-24T10:52:39.995Z,26.08
2022-10-24T10:55:25.372Z,21.70
2022-10-24T10:58:12.299Z,19.35
2022-10-24T11:01:00.960Z,21.08
2022-10-24T11:03:34.016Z,24.35
2022-10-24T11:06:20.909Z,20.95
2022-10-24T11:09:13.442Z,20.98
2022-10-24T11:12:05.914Z,20.33
2022-10-24T11:14:56.062Z,23.38
2022-10-24T11:17:31.742Z,24.00
2022-10-24T11:20:16.630Z,23.73
2022-10-24T11:22:48.139Z,20.38
2022-10-24T11:25:42.706Z,20.90
2022-10-24T11:28:16.215Z,20.17
2022-10-24T11:30:59.239Z,19.75
2022-10-24T11:33:31.005Z,20.77
2022-10-24T11:36:07.503Z,21.20
2022-10-24T11:38:37.068Z,21.95
2022-10-24T11:41:24.467Z,19.95
2022-10-24T11:43:55.000Z,20.80
2022-10-24T11:46:27.272Z,20.02
2022-10-24T11:49:32.555Z,17.77
2022-10-24T11:52:19.679Z,21.63
2022-10-24T11:55:08.271Z,20.05
2022-10-24T11:57:36.013Z,18.35
2022-10-24T12:00:04.361Z,19.02
2022-10-24T12:03:10.612Z,20.08
2022-10-24T12:05:55.595Z,19.75
2022-10-24T12:08:46.931Z,19.75
2022-10-24T12:11:31.651Z,18.77
2022-10-24T12:14:19.114Z,20.17
2022-10-24T12:16:58.465Z,20.30
2022-10-24T12:19:26.260Z,22.48
2022-10-24T12:21:58.719Z,22.65
2022-10-24T12:24:32.868Z,22.40
2022-10-24T12:27:05.724Z,21.70
2022-10-24T12:29:34.875Z,20.08
2022-10-24T12:32:24.527Z,18.27
2022-10-24T12:35:25.206Z,16.23
2022-10-24T12:37:47.661Z,15.77
2022-10-24T12:40:45.747Z,15.45
2022-10-24T12:43:16.820Z,18.33
2022-10-24T12:45:43.761Z,14.93
2022-10-24T12:48:26.463Z,18.05
2022-10-24T12:51:34.167Z,13.15
2022-10-24T12:54:11.769Z,13.05
2022-10-24T12:56:50.599Z,14.13
2022-10-24T12:59:31.629Z,14.80
2022-10-24T13:02:35.415Z,15.50
2022-10-24T13:05:18.211Z,16.55
2022-10-24T13:08:17.454Z,11.73
2022-10-24T13:10:47.550Z,15.27
2022-10-24T13:13:17.348Z,14.15
2022-10-24T13:15:53.513Z,15.63
2022-10-24T13:18:36.062Z,13.45
2022-10-24T13:21:16.567Z,12.30
2022-10-24T13:23:46.076Z,14.73
2022-10-24T13:26:40.435Z,13.02
2022-10-24T13:29:26.054Z,14.20
2022-10-24T13:32:16.291Z,13.68
2022-10-24T13:34:54.719Z,16.10
2022-10-24T13:37:30.616Z,12.85
2022-10-24T13:40:14.727Z,13.00
2022-10-24T13:43:07.864Z,12.43
2022-10-24T13:46:12.912Z,12.45
2022-10-24T13:48:45.878Z,12.43
2022-10-24T13:51:18.373Z,9.75
2022-10-24T13:54:09.443Z,9.98
2022-10-24T13:56:39.408Z,15.60
2022-10-24T13:59:07.778Z,14.38
2022-10-24T14:01:36.943Z,12.05
2022-10-24T14:04:03.940Z,11.00
2022-10-24T14:06:32.970Z,11.40
2022-10-24T14:09:10.577Z,14.02
2022-10-24T14:11:59.330Z,11.38
2022-10-24T14:14:36.132Z,11.95
2022-10-24T14:17:23.832Z,13.60
2022-10-24T14:19:59.269Z,10.20
2022-10-24T14:22:40.602Z,11.18
2022-10-24T14:25:46.432Z,10.13
2022-10-24T14:28:18.047Z,14.27
2022-10-24T14:30:56.692Z,12.82
2022-10-24T14:33:27.863Z,12.80
2022-10-24T14:35:58.029Z,11.32
2022-10-24T14:38:27.286Z,12.60
2022-10-24T14:41:07.990Z,13.25
2022-10-24T14:43:41.212Z,12.02
2022-10-24T14:46:13.954Z,12.20
2022-10-24T14:48:43.305Z,12.73
2022-10-24T14:51:16.690Z,15.40
2022-10-24T14:53:45.023Z,24.88
2022-10-24T14:56:32.699Z,67.43
2022-10-24T14:59:02.511Z,39.90
2022-10-24T15:01:29.595Z,17.05
2022-10-24T15:03:59.744Z,29.38
2022-10-24T15:06:28.755Z,21.98
2022-10-24T15:09:14.672Z,20.80
2022-10-24T15:11:58.585Z,23.73
2022-10-24T15:14:47.776Z,28.50
2022-10-24T15:17:17.307Z,74.53
2022-10-24T15:19:45.876Z,133.32
2022-10-24T15:22:27.127Z,116.22
2022-10-24T15:25:03.610Z,379.67
2022-10-24T15:27:31.989Z,370.25
2022-10-24T15:29:59.080Z,262.95
2022-10-24T15:32:26.566Z,347.92
2022-10-24T15:34:54.695Z,1032.38
2022-10-24T15:37:25.501Z,637.35
2022-10-24T15:39:53.302Z,410.63
2022-10-24T15:42:22.422Z,560.30
2022-10-24T15:44:50.303Z,380.63
2022-10-24T15:47:17.352Z,240.85
2022-10-24T15:49:44.454Z,152.35
2022-10-24T15:52:13.265Z,82.28
2022-10-24T15:54:42.071Z,97.72
2022-10-24T15:57:13.229Z,155.48
2022-10-24T15:59:40.527Z,143.05
2022-10-24T16:02:14.622Z,163.73
2022-10-24T16:04:42.523Z,56.13
2022-10-24T16:07:10.224Z,36.33
2022-10-24T16:09:37.665Z,59.75
2022-10-24T16:12:05.273Z,61.00
2022-10-24T16:14:32.472Z,47.97
2022-10-24T16:16:59.553Z,57.47
2022-10-24T16:19:27.237Z,52.15
2022-10-24T16:21:58.690Z,113.15
2022-10-24T16:24:27.429Z,76.88
2022-10-24T16:26:54.616Z,44.22
2022-10-24T16:29:22.111Z,61.55
2022-10-24T16:31:50.808Z,106.03
2022-10-24T16:34:18.007Z,90.90
2022-10-24T16:36:44.969Z,113.05
2022-10-24T16:39:14.475Z,94.30
2022-10-24T16:41:46.150Z,80.18
2022-10-24T16:44:14.250Z,35.22
2022-10-24T16:46:41.248Z,95.75
2022-10-24T16:49:08.432Z,113.28
2022-10-24T16:51:37.365Z,82.88
2022-10-24T16:54:06.448Z,59.78
2022-10-24T16:56:33.521Z,48.95
2022-10-24T16:59:01.074Z,38.15
2022-10-24T17:01:28.312Z,33.67
2022-10-24T17:03:55.606Z,34.65
2022-10-24T17:06:22.568Z,30.20
2022-10-24T17:08:49.676Z,30.88
2022-10-24T17:11:43.283Z,39.55
2022-10-24T17:14:03.812Z,32.05
2022-10-24T17:16:30.832Z,38.28
2022-10-24T17:19:15.173Z,34.80
2022-10-24T17:21:44.338Z,31.60
2022-10-24T17:24:12.555Z,32.97
2022-10-24T17:26:40.639Z,40.33
2022-10-24T17:29:08.893Z,31.60
2022-10-24T17:31:36.181Z,38.72
2022-10-24T17:34:03.843Z,40.65
2022-10-24T17:36:34.145Z,40.58
2022-10-24T17:39:14.253Z,37.05
2022-10-24T17:41:41.575Z,39.13
2022-10-24T17:44:17.768Z,38.92
2022-10-24T17:46:45.528Z,36.08
2022-10-24T17:49:17.867Z,47.88
2022-10-24T17:51:48.615Z,41.13
2022-10-24T17:54:16.076Z,42.50
2022-10-24T17:56:43.275Z,47.55
2022-10-24T17:59:10.662Z,43.10
2022-10-24T18:01:38.570Z,46.60
2022-10-24T18:04:06.672Z,42.42
2022-10-24T18:06:34.668Z,52.08
2022-10-24T18:09:02.907Z,51.40
2022-10-24T18:11:30.713Z,50.13
2022-10-24T18:13:58.210Z,49.22
2022-10-24T18:16:27.412Z,48.92
2022-10-24T18:18:57.549Z,42.08
2022-10-24T18:21:25.991Z,46.05
2022-10-24T18:23:54.739Z,52.65
2022-10-24T18:26:24.713Z,40.72
2022-10-24T18:28:53.888Z,42.70
2022-10-24T18:31:24.048Z,45.72
2022-10-24T18:33:52.918Z,51.17
2022-10-24T18:36:23.336Z,41.42
2022-10-24T18:38:52.025Z,47.40
2022-10-24T18:41:33.731Z,72.28
2022-10-24T18:44:08.759Z,58.28
2022-10-24T18:46:36.536Z,69.53
2022-10-24T18:49:05.319Z,56.65
2022-10-24T18:51:50.454Z,41.47
2022-10-24T18:54:20.980Z,43.85
2022-10-24T18:56:49.220Z,48.80
2022-10-24T18:59:20.518Z,45.88
2022-10-24T19:01:53.002Z,44.67
2022-10-24T19:04:24.084Z,44.22
2022-10-24T19:06:55.111Z,38.10
2022-10-24T19:09:25.059Z,41.47
2022-10-24T19:11:53.169Z,42.45
2022-10-24T19:14:21.370Z,50.17
2022-10-24T19:16:50.798Z,49.63
2022-10-24T19:19:26.577Z,76.72
2022-10-24T19:21:54.292Z,54.50
2022-10-24T19:24:23.009Z,67.13
2022-10-24T19:26:51.034Z,63.10
2022-10-24T19:29:19.179Z,48.50
2022-10-24T19:31:46.847Z,43.78
2022-10-24T19:34:15.290Z,54.33
2022-10-24T19:36:42.872Z,51.05
2022-10-24T19:39:11.177Z,43.67
2022-10-24T19:41:38.908Z,46.22
2022-10-24T19:44:07.036Z,58.50
2022-10-24T19:46:34.904Z,56.65
2022-10-24T19:49:03.881Z,69.45
2022-10-24T19:51:31.512Z,42.20
2022-10-24T19:53:59.438Z,44.13
2022-10-24T19:56:28.727Z,40.40
2022-10-24T19:58:56.297Z,44.15
2022-10-24T20:01:28.441Z,47.13
2022-10-24T20:03:56.250Z,39.40
2022-10-24T20:06:24.829Z,43.13
2022-10-24T20:08:53.255Z,58.00
2022-10-24T20:11:22.974Z,45.47
2022-10-24T20:13:50.564Z,70.95
2022-10-24T20:16:17.591Z,47.00
2022-10-24T20:18:44.734Z,49.63
2022-10-24T20:21:13.524Z,46.50
2022-10-24T20:23:41.694Z,53.20
2022-10-24T20:26:11.027Z,45.65
2022-10-24T20:28:41.135Z,39.60
2022-10-24T20:31:08.065Z,45.45
2022-10-24T20:33:35.168Z,42.22
2022-10-24T20:36:02.047Z,49.53
2022-10-24T20:38:29.387Z,43.85
2022-10-24T20:41:01.376Z,53.13
2022-10-24T20:43:29.615Z,51.50
2022-10-24T20:45:56.498Z,63.83
2022-10-24T20:48:23.873Z,190.65
2022-10-24T20:50:50.782Z,352.25
2022-10-24T20:53:19.126Z,318.25
2022-10-24T20:55:46.154Z,98.75
2022-10-24T20:58:13.639Z,89.20
2022-10-24T21:03:15.216Z,73.57
2022-10-24T21:05:42.103Z,57.42
2022-10-24T21:08:09.262Z,53.70
2022-10-24T21:10:36.127Z,50.53
2022-10-24T21:13:03.251Z,52.72
2022-10-24T21:15:30.125Z,47.75
2022-10-24T21:17:57.216Z,43.35
2022-10-24T21:20:24.055Z,45.67
2022-10-24T21:22:51.135Z,53.03
2022-10-24T21:25:18.012Z,52.78
2022-10-24T21:27:45.349Z,52.25
2022-10-24T21:30:14.824Z,93.50
2022-10-24T21:32:42.387Z,58.55
2022-10-24T21:35:09.342Z,58.63
2022-10-24T21:37:36.577Z,119.18
2022-10-24T21:40:03.864Z,134.05
2022-10-24T21:42:31.635Z,82.40
2022-10-24T21:44:58.696Z,65.68
2022-10-24T21:47:25.782Z,75.13
2022-10-24T21:49:52.611Z,74.57
2022-10-24T21:52:19.728Z,58.58
2022-10-24T21:54:46.659Z,62.58
2022-10-24T21:57:13.701Z,56.75
2022-10-24T21:59:40.622Z,59.05
2022-10-24T22:02:08.165Z,57.33
2022-10-24T22:04:35.067Z,62.47
2022-10-24T22:07:02.407Z,57.53
2022-10-24T22:09:29.362Z,61.00
2022-10-24T22:11:57.954Z,99.60
2022-10-24T22:14:25.380Z,67.95
2022-10-24T22:16:52.554Z,67.95
2022-10-24T22:19:19.626Z,67.03
2022-10-24T22:21:49.037Z,76.38
2022-10-24T22:24:17.263Z,62.65
2022-10-24T22:26:44.679Z,63.05
2022-10-24T22:29:15.400Z,68.18
2022-10-24T22:31:43.202Z,65.65
2022-10-24T22:34:15.959Z,61.38
2022-10-24T22:36:58.264Z,58.08
2022-10-24T22:39:25.860Z,60.58
2022-10-24T22:41:53.324Z,53.78
2022-10-24T22:44:21.143Z,60.92
2022-10-24T22:47:06.889Z,52.65
2022-10-24T22:49:36.898Z,56.13
2022-10-24T22:52:04.515Z,55.47
2022-10-24T22:54:34.875Z,57.72
2022-10-24T22:57:03.611Z,65.40
2022-10-24T22:59:30.991Z,60.38
2022-10-24T23:02:23.373Z,63.53
2022-10-24T23:05:10.997Z,73.93
2022-10-24T23:07:38.091Z,93.35
2022-10-24T23:10:06.812Z,62.03
2022-10-24T23:12:34.182Z,74.85
2022-10-24T23:15:01.222Z,65.80
2022-10-24T23:17:30.287Z,54.10
2022-10-24T23:19:57.628Z,52.42
2022-10-24T23:22:27.041Z,55.65
2022-10-24T23:24:56.843Z,60.63
2022-10-24T23:27:34.437Z,54.08
2022-10-24T23:30:03.092Z,51.10
2022-10-24T23:32:32.626Z,52.58
2022-10-24T23:35:00.317Z,54.72
2022-10-24T23:37:32.053Z,53.35
2022-10-24T23:40:14.148Z,54.38
2022-10-24T23:42:41.634Z,61.40
2022-10-24T23:45:17.529Z,52.72
2022-10-24T23:47:53.799Z,85.78
2022-10-24T23:50:38.863Z,130.05
2022-10-24T23:53:29.447Z,100.43
2022-10-24T23:55:56.591Z,161.18
2022-10-24T23:58:23.784Z,168.07
